LIRNLGKR

Guest
Details From LIRN - Naples Capodichino
To LGKR - IOANNIS KAPODISTRIAS INTL
Flight Number -
Tags generated
Created
Modified
Stats Distance 277 nm / 513 km
Max Altitude 31,000 ft / 9,449 m
Waypoints 5
Social Downloads 12
Likes 0
Share VATSIM

Download

Looking for another format? Having issues loading an existing format? Contact us
Advertisement - Login to hide

Notes

Basic altitude profile: - Ascent Rate: 2500ft/min - Ascent Speed: 250kts - Cruise Altitude: 35000ft - Cruise Speed: 420kts - Descent Rate: 1500ft/min - Descent Speed: 250kts Options: - Use NATs: yes - Use PACOTS: yes - Use low airways: yes - Use high airways: yes

Route

LIRN MATED UM603 BRD LGKR

ID Type Via Altitude Latitude Longitude Leg Dist Tot Dist Heading (true) Name
O LIRN APT - 0 ft / 0 m 40.88603˚ 14.29078˚ - 0 nm - Naples Capodichino
MATED FIX - 31,000 ft / 9,449 m 40.61056˚ 16.16833˚ 87 nm 87 nm 100° / 102° -
MOKTO FIX UM603 (AWY-HI) 29,900 ft / 9,114 m 40.61444˚ 17.17417˚ 45 nm 132 nm 89° / 90° -
BRD VOR UM603 (AWY-HI) 21,800 ft / 6,645 m 40.61083˚ 18.00278˚ 37 nm 170 nm 90° / 91° BRINDISI VORTAC
O LGKR APT - 0 ft / 0 m 39.60178˚ 19.91191˚ 106 nm 277 nm 124° / 125° IOANNIS KAPODISTRIAS INTL

Altitude Profile

Advertisement - Login to hide

Weather


0- 5 10 15 20 25 30 35+ Temperature / ° C

Clouds and Precipitation
Forecast for 2017-12-17 06:00 UTC. Updated an hour ago

Ground ~20,000 ft ~40,000 ft Winds

LIRN

Details ICAO LIRN (NAP)
Name Naples Capodichino
Region Italy
Timezone Europe/Rome (UTC+1.0)
Stats Elevation 294 ft / 90 m (AMSL)
Location 40.886032° 14.290783°
Runways 1
Magnetic Variation 3.308° E

METAR

LIRN 170220Z 10003KT 9999 FEW020 07/04 Q1009 NOSIG

Decode

TAF

TAF LIRN 162300Z 1700/1724 VRB05KT 9999 SCT030 TEMPO 1700/1703 4000 SHRA BECMG 1709/1711 05010KT

Decode

Departure Runways

ID Width Length Bearing (true) Bearing (mag) Surface Threshold Offset Overrun Length
06 148 ft / 45 m 8,612 ft / 2,625 m 58.03° 54.72° Asphalt 1,309 ft / 399 m 0 ft / 0 m
24 148 ft / 45 m 8,612 ft / 2,625 m 238.05° 234.74° Asphalt 624 ft / 190 m 0 ft / 0 m

LGKR

Details ICAO LGKR (CFU)
Name IOANNIS KAPODISTRIAS INTL
Region Greece
Timezone Europe/Athens (UTC+2.0)
Stats Elevation 6 ft / 2 m (AMSL)
Location 39.601779° 19.911908°
Runways 1
Magnetic Variation 4.099° E

METAR

LGKR 170220Z 25003KT 9999 SCT015 BKN020 BKN080 12/11 Q1008 NOSIG

Decode

TAF

TAF LGKR 162300Z 1700/1724 27012KT 9999 SCT015 BKN025 TEMPO 1700/1704 5000 RA PROB40 TEMPO 1700/1702 3000 TSRA SCT010 FEW018CB BKN020 OVC080 BECMG 1702/1704 33012KT BECMG 1710/1712 VRB05KT

Decode

Destination Runways

ID Width Length Bearing (true) Bearing (mag) Surface Threshold Offset Overrun Length
17 148 ft / 45 m 7,815 ft / 2,382 m 168.81° 164.71° Asphalt 1,348 ft / 411 m 0 ft / 0 m
35 148 ft / 45 m 7,815 ft / 2,382 m 348.81° 344.71° Asphalt 213 ft / 65 m 0 ft / 0 m

Popular Alternatives